Time;durP1;ratioP1;P1;durP2;ratioP2;P2;SDS_P1;SDS_P2;PMS_P1;PMS_P2;Temp;Humidity;BMP_temperature;BMP_pressure;BME280_temperature;BME280_humidity;BME280_pressure;Samples;Min_cycle;Max_cycle;Signal;HPM_P1;HPM_P2
2021/05/11 00:01:18;;;;;;;9.88;2.97;;;18.20;70.40;;;;;;5071728;28;20021;-58
2021/05/11 00:03:44;;;;;;;10.68;3.50;;;18.20;70.50;;;;;;5072586;28;20487;-58
2021/05/11 00:06:10;;;;;;;16.45;3.17;;;18.20;70.50;;;;;;5072255;28;20017;-59
2021/05/11 00:08:40;;;;;;;13.55;3.47;;;18.20;70.50;;;;;;5071766;28;20103;-58
2021/05/11 00:11:05;;;;;;;11.82;3.65;;;18.20;70.50;;;;;;5072637;28;20033;-58
2021/05/11 00:13:31;;;;;;;11.77;3.78;;;18.10;70.40;;;;;;5072032;28;20037;-59
2021/05/11 00:15:58;;;;;;;16.40;3.80;;;18.10;70.30;;;;;;5071698;28;20392;-58
2021/05/11 00:18:24;;;;;;;9.57;3.47;;;18.10;70.40;;;;;;5072431;28;20032;-58
2021/05/11 00:20:50;;;;;;;11.35;3.45;;;18.10;70.40;;;;;;5072522;28;20036;-59
2021/05/11 00:23:15;;;;;;;11.50;2.80;;;18.00;70.50;;;;;;5071613;28;20040;-59
2021/05/11 00:25:41;;;;;;;12.95;3.88;;;18.00;70.70;;;;;;5072369;28;20037;-58
2021/05/11 00:28:07;;;;;;;16.80;3.47;;;18.00;70.80;;;;;;5072361;28;20032;-59
2021/05/11 00:30:32;;;;;;;9.85;3.33;;;18.00;70.90;;;;;;5071442;28;20024;-58
2021/05/11 00:32:58;;;;;;;11.90;3.53;;;17.90;71.00;;;;;;5072355;28;20543;-59
2021/05/11 00:35:23;;;;;;;12.07;3.20;;;17.90;71.20;;;;;;5072314;28;20035;-58
2021/05/11 00:37:49;;;;;;;12.50;3.67;;;17.90;71.50;;;;;;5071442;28;20029;-59
2021/05/11 00:40:15;;;;;;;13.48;3.13;;;17.80;71.50;;;;;;5072176;28;20119;-59
2021/05/11 00:42:41;;;;;;;13.90;3.55;;;17.80;71.80;;;;;;5072224;28;20024;-58
2021/05/11 00:45:07;;;;;;;16.75;3.53;;;17.80;71.90;;;;;;5071381;28;20477;-58
2021/05/11 00:47:33;;;;;;;9.65;3.47;;;17.70;72.10;;;;;;5071788;28;20063;-58
2021/05/11 00:49:59;;;;;;;9.98;3.40;;;17.70;72.20;;;;;;5072289;28;20060;-58
2021/05/11 00:52:25;;;;;;;23.15;3.42;;;17.70;72.30;;;;;;5071179;28;20024;-58
2021/05/11 00:54:51;;;;;;;10.07;3.45;;;17.70;72.50;;;;;;5071375;28;20152;-58
2021/05/11 00:57:17;;;;;;;14.27;4.18;;;17.70;72.60;;;;;;5069932;28;20060;-58
2021/05/11 00:59:43;;;;;;;13.80;4.85;;;17.60;72.70;;;;;;5069416;28;20433;-58
2021/05/11 01:02:09;;;;;;;10.23;4.40;;;17.60;72.80;;;;;;5074166;28;20037;-58
2021/05/11 01:04:36;;;;;;;15.57;5.30;;;17.60;73.00;;;;;;5074551;28;20443;-58
2021/05/11 01:07:03;;;;;;;15.10;5.20;;;17.60;73.10;;;;;;5075457;28;20063;-58
2021/05/11 01:09:28;;;;;;;16.67;6.00;;;17.60;73.20;;;;;;5075351;28;20033;-58
2021/05/11 01:11:55;;;;;;;15.60;6.00;;;17.60;73.40;;;;;;5074517;28;20078;-58
2021/05/11 01:14:22;;;;;;;13.48;6.05;;;17.50;73.50;;;;;;5075284;28;20040;-58
2021/05/11 01:16:54;;;;;;;23.85;7.53;;;17.60;73.70;;;;;;5074023;28;20035;-58
2021/05/11 01:19:29;;;;;;;16.15;6.95;;;17.60;73.80;;;;;;5074746;28;20040;-58
2021/05/11 01:22:04;;;;;;;13.38;6.30;;;17.50;73.90;;;;;;5074713;28;20017;-59
2021/05/11 01:24:35;;;;;;;14.93;6.40;;;17.50;74.00;;;;;;5075270;28;20036;-59
2021/05/11 01:48:56;;;;;;;19.88;8.35;;;17.50;75.20;;;;;;5069458;28;20036;-58
2021/05/11 01:51:35;;;;;;;15.93;8.18;;;17.50;75.30;;;;;;5071652;28;20035;-58
2021/05/11 01:54:31;;;;;;;19.33;8.00;;;17.50;75.40;;;;;;5073543;28;20135;-58
2021/05/11 02:23:52;;;;;;;16.58;8.98;;;17.50;76.00;;;;;;5073484;28;20440;-58
2021/05/11 02:26:18;;;;;;;17.73;7.90;;;17.50;76.10;;;;;;5074161;28;20068;-58
2021/05/11 02:28:43;;;;;;;17.77;8.85;;;17.50;76.00;;;;;;5073981;28;20043;-59
2021/05/11 02:31:09;;;;;;;15.38;8.55;;;17.50;76.20;;;;;;5073206;28;20028;-59
2021/05/11 02:33:35;;;;;;;16.02;9.70;;;17.50;76.40;;;;;;5073619;28;20526;-58
2021/05/11 02:36:00;;;;;;;14.32;9.38;;;17.50;76.60;;;;;;5073365;28;20025;-59
2021/05/11 02:38:26;;;;;;;10.15;7.40;;;17.40;76.70;;;;;;5073860;28;20036;-59
2021/05/11 02:40:52;;;;;;;13.93;7.13;;;17.40;77.10;;;;;;5069808;28;20131;-59
2021/05/11 02:43:25;;;;;;;13.93;7.45;;;17.40;76.50;;;;;;5055748;28;20098;-58
2021/05/11 02:45:50;;;;;;;15.35;7.82;;;17.40;76.40;;;;;;5059011;28;20025;-58
2021/05/11 02:48:16;;;;;;;16.45;7.65;;;17.40;76.30;;;;;;5056260;28;20033;-58
2021/05/11 02:50:42;;;;;;;13.90;7.78;;;17.40;76.50;;;;;;5058278;28;20086;-59
2021/05/11 02:53:07;;;;;;;14.10;7.93;;;17.40;76.70;;;;;;5055916;28;20064;-58
2021/05/11 02:55:33;;;;;;;12.32;8.00;;;17.40;76.90;;;;;;5057630;28;20043;-58
2021/05/11 02:57:59;;;;;;;11.88;7.43;;;17.40;77.20;;;;;;5060524;28;20103;-58
2021/05/11 03:00:27;;;;;;;11.88;7.38;;;17.40;77.40;;;;;;5062926;28;20377;-58
2021/05/11 03:02:54;;;;;;;11.93;7.45;;;17.40;77.50;;;;;;5057471;28;20032;-59
2021/05/11 03:05:19;;;;;;;17.02;7.55;;;17.40;77.30;;;;;;5054812;28;20036;-58
2021/05/11 03:07:45;;;;;;;11.80;7.15;;;17.40;77.40;;;;;;5057421;28;20032;-58
2021/05/11 03:10:12;;;;;;;11.95;7.50;;;17.40;77.50;;;;;;5055507;28;20121;-58
2021/05/11 03:12:38;;;;;;;10.48;6.30;;;17.40;77.50;;;;;;5055791;28;20048;-59
2021/05/11 03:15:06;;;;;;;8.95;5.68;;;17.40;77.20;;;;;;5056217;28;20091;-58
2021/05/11 03:17:31;;;;;;;14.27;7.20;;;17.40;76.80;;;;;;5055148;28;20061;-58
2021/05/11 03:19:57;;;;;;;10.85;7.55;;;17.40;77.00;;;;;;5056310;28;20056;-58
2021/05/11 03:22:23;;;;;;;11.93;7.13;;;17.40;77.30;;;;;;5064227;28;20024;-58
2021/05/11 03:24:49;;;;;;;13.48;8.18;;;17.40;77.20;;;;;;5072029;28;20062;-58
2021/05/11 03:27:16;;;;;;;16.10;8.13;;;17.40;77.30;;;;;;5071034;28;20027;-58
2021/05/11 03:29:42;;;;;;;13.98;8.48;;;17.40;77.50;;;;;;5072396;28;20025;-58
2021/05/11 03:32:08;;;;;;;11.80;8.10;;;17.40;77.60;;;;;;5072672;28;20036;-58
2021/05/11 03:34:35;;;;;;;11.35;7.18;;;17.40;77.50;;;;;;5072076;28;20036;-58
2021/05/11 03:37:02;;;;;;;10.07;7.30;;;17.50;77.60;;;;;;5072534;28;20025;-58
2021/05/11 03:39:31;;;;;;;12.10;6.93;;;17.40;77.50;;;;;;5071821;28;20067;-58
2021/05/11 03:42:01;;;;;;;14.25;7.15;;;17.40;77.40;;;;;;5064731;28;20051;-58
2021/05/11 03:44:30;;;;;;;10.90;5.97;;;17.50;77.30;;;;;;5059582;28;20021;-58
2021/05/11 03:46:56;;;;;;;10.60;6.13;;;17.40;77.10;;;;;;5061696;28;20108;-59
2021/05/11 03:49:21;;;;;;;10.15;6.35;;;17.40;76.80;;;;;;5061285;28;20171;-58
2021/05/11 03:51:47;;;;;;;9.63;5.22;;;17.40;76.80;;;;;;5060250;28;20025;-59
2021/05/11 03:54:13;;;;;;;10.75;5.43;;;17.40;76.60;;;;;;5062130;28;20049;-58
2021/05/11 03:56:40;;;;;;;8.65;5.28;;;17.40;76.40;;;;;;5058598;28;20071;-59
2021/05/11 03:59:06;;;;;;;8.65;5.18;;;17.30;76.30;;;;;;5072018;28;20032;-58
2021/05/11 04:01:33;;;;;;;7.20;3.63;;;17.30;76.30;;;;;;5072105;28;20032;-59
2021/05/11 04:03:59;;;;;;;10.15;3.97;;;17.30;76.40;;;;;;5072791;28;20028;-58
2021/05/11 04:06:25;;;;;;;7.22;3.63;;;17.30;76.70;;;;;;5072654;28;20519;-58
2021/05/11 04:08:55;;;;;;;5.43;2.35;;;17.30;76.90;;;;;;5071861;28;20421;-59
2021/05/11 04:16:11;;;;;;;5.55;2.90;;;17.20;76.80;;;;;;5072453;28;20047;-58
2021/05/11 04:17:02;;;;;;;5.38;2.40;;;17.20;76.80;;;;;;5072381;28;20024;-58
2021/05/11 04:19:27;;;;;;;7.75;3.05;;;17.20;76.80;;;;;;5072236;28;20135;-58
2021/05/11 04:21:53;;;;;;;3.72;2.40;;;17.20;77.10;;;;;;5071504;28;20028;-58
2021/05/11 04:24:22;;;;;;;4.72;2.83;;;17.20;77.30;;;;;;5072527;28;20035;-59
2021/05/11 04:26:48;;;;;;;5.68;3.22;;;17.10;77.50;;;;;;5072044;28;20041;-58
2021/05/11 04:29:14;;;;;;;6.47;3.40;;;17.20;77.90;;;;;;5071694;28;20028;-58
2021/05/11 04:31:42;;;;;;;5.68;3.63;;;17.10;78.10;;;;;;5072208;28;20021;-58
2021/05/11 04:34:08;;;;;;;5.57;3.33;;;17.10;78.30;;;;;;5072139;28;20857;-58
2021/05/11 04:36:34;;;;;;;7.18;3.65;;;17.10;78.40;;;;;;5073270;28;20108;-58
2021/05/11 04:38:59;;;;;;;7.78;3.83;;;17.10;78.80;;;;;;5075969;28;20029;-58
2021/05/11 04:41:25;;;;;;;8.07;4.70;;;17.10;78.80;;;;;;5076034;28;20028;-59
2021/05/11 04:43:50;;;;;;;6.10;4.50;;;17.10;78.90;;;;;;5075454;28;20072;-58
2021/05/11 04:48:49;;;;;;;9.73;4.30;;;17.10;79.00;;;;;;5075773;28;20435;-59
2021/05/11 04:51:15;;;;;;;8.40;3.85;;;17.10;79.10;;;;;;5075031;28;20020;-59
2021/05/11 04:53:41;;;;;;;7.40;4.20;;;17.20;79.10;;;;;;5075278;28;20472;-58
2021/05/11 04:56:09;;;;;;;7.15;4.55;;;17.10;79.10;;;;;;5075884;28;20027;-59
2021/05/11 04:58:35;;;;;;;10.18;4.85;;;17.20;79.30;;;;;;5074973;28;20037;-59
2021/05/11 05:01:03;;;;;;;8.32;4.60;;;17.20;79.40;;;;;;5075438;28;20032;-58
2021/05/11 05:03:29;;;;;;;6.60;4.38;;;17.20;79.50;;;;;;5075581;28;20040;-58
2021/05/11 05:05:55;;;;;;;8.85;4.97;;;17.20;79.40;;;;;;5073384;28;20067;-58
2021/05/11 05:08:22;;;;;;;7.25;4.88;;;17.20;79.70;;;;;;5075728;28;20063;-58
2021/05/11 05:10:47;;;;;;;6.72;4.63;;;17.20;79.90;;;;;;5069105;28;20036;-58
2021/05/11 05:13:25;;;;;;;6.68;4.65;;;17.10;80.00;;;;;;5072964;28;20028;-58
2021/05/11 05:15:51;;;;;;;8.50;4.78;;;17.10;80.20;;;;;;5070805;28;20357;-58
2021/05/11 05:18:17;;;;;;;8.35;5.10;;;17.20;80.30;;;;;;5073623;28;20029;-59
2021/05/11 05:20:43;;;;;;;7.80;4.70;;;17.20;80.30;;;;;;5067809;28;20030;-58
2021/05/11 05:23:09;;;;;;;6.93;4.20;;;17.20;80.10;;;;;;5072158;28;20037;-58
2021/05/11 05:25:35;;;;;;;10.05;5.43;;;17.20;80.00;;;;;;5074114;28;20399;-59
2021/05/11 05:28:06;;;;;;;10.48;5.15;;;17.20;80.10;;;;;;5061639;28;20036;-59
2021/05/11 05:30:32;;;;;;;7.65;4.38;;;17.20;80.10;;;;;;5055358;28;20028;-59
2021/05/11 05:33:02;;;;;;;8.63;5.35;;;17.20;80.20;;;;;;5057649;28;20118;-59
2021/05/11 05:35:32;;;;;;;7.07;4.90;;;17.20;80.50;;;;;;5055425;28;20041;-59
2021/05/11 05:37:58;;;;;;;8.00;5.22;;;17.20;80.60;;;;;;5060165;28;20036;-59
2021/05/11 05:40:25;;;;;;;7.90;4.55;;;17.20;80.70;;;;;;5073600;28;20032;-59
2021/05/11 05:42:51;;;;;;;8.82;4.03;;;17.20;80.70;;;;;;5066284;28;20029;-59
2021/05/11 05:45:17;;;;;;;6.65;4.63;;;17.30;80.80;;;;;;5055376;28;20142;-59
2021/05/11 05:47:52;;;;;;;5.93;3.78;;;17.20;80.80;;;;;;5053710;28;20047;-60
2021/05/11 05:50:24;;;;;;;6.72;4.35;;;17.20;80.90;;;;;;5054972;28;20021;-59
2021/05/11 05:52:58;;;;;;;7.45;4.38;;;17.20;80.90;;;;;;5054681;28;20036;-58
2021/05/11 05:55:24;;;;;;;5.10;3.65;;;17.30;80.80;;;;;;5059167;28;20056;-60
2021/05/11 05:57:49;;;;;;;6.97;4.47;;;17.30;80.70;;;;;;5056521;28;20040;-60
2021/05/11 06:00:17;;;;;;;7.07;3.78;;;17.30;80.60;;;;;;5055737;28;20032;-60
2021/05/11 06:02:47;;;;;;;5.30;3.15;;;17.30;80.60;;;;;;5054715;28;20467;-60
2021/05/11 06:05:14;;;;;;;5.15;2.80;;;17.30;80.50;;;;;;5058676;28;20036;-60
2021/05/11 06:07:42;;;;;;;10.43;2.78;;;17.20;80.10;;;;;;5068096;28;20028;-59
2021/05/11 06:10:10;;;;;;;4.88;2.20;;;17.20;80.10;;;;;;5059541;28;20498;-59
2021/05/11 06:12:46;;;;;;;7.38;2.30;;;17.30;79.80;;;;;;5055004;28;20038;-60
2021/05/11 06:17:56;;;;;;;3.83;1.95;;;17.20;79.20;;;;;;5056569;28;20043;-60
2021/05/11 06:20:22;;;;;;;4.22;1.65;;;17.20;79.10;;;;;;5061936;28;20025;-60
2021/05/11 06:22:47;;;;;;;2.15;1.25;;;17.20;79.10;;;;;;5057180;28;20602;-60
2021/05/11 06:25:13;;;;;;;1.55;1.25;;;17.20;79.10;;;;;;5054969;28;20036;-59
2021/05/11 06:27:39;;;;;;;3.83;1.30;;;17.20;79.20;;;;;;5054372;28;20473;-59
2021/05/11 06:30:05;;;;;;;3.63;1.75;;;17.20;79.40;;;;;;5071507;28;20033;-59
2021/05/11 06:32:32;;;;;;;3.45;1.60;;;17.20;79.50;;;;;;5064830;28;20025;-59
2021/05/11 06:35:02;;;;;;;4.50;1.48;;;17.20;79.60;;;;;;5071221;28;20060;-59
2021/05/11 06:37:27;;;;;;;3.08;1.38;;;17.20;79.70;;;;;;5065630;28;20062;-59
2021/05/11 06:39:56;;;;;;;3.20;1.48;;;17.20;79.70;;;;;;5067688;28;20076;-59
2021/05/11 06:42:23;;;;;;;2.10;1.17;;;17.20;79.70;;;;;;5065705;28;20525;-60
2021/05/11 06:55:16;;;;;;;2.60;1.38;;;17.20;78.90;;;;;;5057342;28;20099;-59
2021/05/11 06:57:41;;;;;;;4.22;1.42;;;17.20;78.70;;;;;;5060234;28;20029;-59
2021/05/11 07:00:08;;;;;;;2.08;1.20;;;17.20;78.70;;;;;;5072801;28;20249;-59
2021/05/11 07:02:34;;;;;;;2.40;1.20;;;17.20;78.50;;;;;;5073487;28;20024;-59
2021/05/11 07:04:59;;;;;;;2.83;1.45;;;17.20;78.40;;;;;;5071310;28;20410;-59
2021/05/11 07:07:26;;;;;;;2.47;1.52;;;17.20;78.40;;;;;;5073279;28;20106;-59
2021/05/11 07:10:04;;;;;;;4.75;1.60;;;17.20;78.30;;;;;;5073352;28;20135;-59
2021/05/11 07:15:14;;;;;;;3.78;1.50;;;17.30;78.60;;;;;;5073278;28;20062;-59
2021/05/11 07:17:39;;;;;;;4.47;1.40;;;17.20;78.50;;;;;;5072391;28;20469;-59
2021/05/11 07:20:05;;;;;;;4.05;1.70;;;17.20;78.60;;;;;;5066560;28;20388;-59
2021/05/11 07:22:31;;;;;;;4.45;2.00;;;17.20;78.50;;;;;;5065732;28;20392;-59
2021/05/11 07:24:58;;;;;;;3.70;1.60;;;17.20;78.40;;;;;;5072206;28;20025;-60
2021/05/11 07:29:54;;;;;;;4.85;2.08;;;17.20;78.40;;;;;;5073008;28;20062;-59
2021/05/11 07:32:20;;;;;;;2.58;1.73;;;17.20;79.20;;;;;;5072221;28;20040;-59
2021/05/11 07:34:48;;;;;;;3.70;1.90;;;17.20;78.60;;;;;;5072808;28;20048;-59
2021/05/11 07:37:14;;;;;;;1.85;1.70;;;17.30;78.90;;;;;;5072796;28;20471;-59
2021/05/11 07:39:44;;;;;;;5.13;1.98;;;17.30;79.00;;;;;;5071944;28;20032;-59
2021/05/11 07:42:10;;;;;;;2.28;1.88;;;17.30;79.10;;;;;;5072782;28;20028;-59
2021/05/11 07:44:38;;;;;;;5.40;2.30;;;17.40;79.30;;;;;;5073029;28;20383;-59
2021/05/11 08:06:11;;;;;;;7.18;2.47;;;17.50;80.20;;;;;;5072390;28;20035;-59
2021/05/11 08:16:34;;;;;;;4.85;3.30;;;17.50;80.10;;;;;;5076618;28;20075;-59
2021/05/11 08:29:45;;;;;;;7.15;3.70;;;17.60;79.90;;;;;;5075535;28;20396;-59
2021/05/11 08:32:10;;;;;;;6.57;4.05;;;17.70;79.20;;;;;;5076482;28;20031;-59
2021/05/11 08:34:36;;;;;;;5.47;3.50;;;17.70;79.40;;;;;;5075921;28;20392;-59
2021/05/11 08:37:01;;;;;;;5.22;3.03;;;17.70;79.20;;;;;;5075897;28;20494;-59
2021/05/11 08:39:27;;;;;;;5.07;3.50;;;17.70;79.20;;;;;;5076119;28;20043;-59
2021/05/11 08:41:53;;;;;;;7.55;3.33;;;17.70;79.20;;;;;;5075235;28;20062;-59
2021/05/11 08:44:19;;;;;;;3.95;2.72;;;17.80;79.20;;;;;;5076019;28;20040;-59
2021/05/11 08:46:45;;;;;;;8.40;2.80;;;17.80;79.10;;;;;;5075801;28;20029;-60
2021/05/11 08:49:12;;;;;;;8.77;3.05;;;17.90;79.30;;;;;;5075141;28;20036;-59
2021/05/11 08:51:52;;;;;;;5.05;2.70;;;17.90;79.10;;;;;;5075692;28;20051;-59
2021/05/11 09:06:15;;;;;;;3.95;2.53;;;18.00;78.60;;;;;;5075720;28;20434;-59
2021/05/11 09:14:34;;;;;;;4.90;2.58;;;18.10;78.70;;;;;;5075375;28;20039;-59
2021/05/11 09:25:28;;;;;;;4.15;1.77;;;18.20;77.50;;;;;;5074510;28;20047;-60
2021/05/11 09:28:06;;;;;;;2.47;1.13;;;18.20;77.00;;;;;;5075043;28;20116;-60
2021/05/11 09:33:51;;;;;;;1.30;1.20;;;18.30;77.00;;;;;;5069491;28;20039;-60
2021/05/11 09:45:19;;;;;;;1.65;0.98;;;18.30;76.60;;;;;;5061472;28;20391;-60
2021/05/11 10:49:28;;;;;;;3.90;2.00;;;18.80;77.80;;;;;;5062366;28;20051;-57
2021/05/11 10:54:53;;;;;;;1.10;1.00;;;18.90;77.60;;;;;;5054218;28;20044;-57
2021/05/11 10:57:30;;;;;;;1.52;1.10;;;18.80;77.70;;;;;;5070183;28;20043;-58
2021/05/11 11:00:16;;;;;;;2.30;1.40;;;18.90;78.00;;;;;;5073488;28;20398;-58
2021/05/11 11:02:48;;;;;;;1.00;0.95;;;18.90;77.30;;;;;;5069036;28;20518;-57
2021/05/11 11:05:37;;;;;;;3.40;1.50;;;18.90;77.60;;;;;;5063382;28;20028;-57
2021/05/11 11:08:03;;;;;;;2.88;1.10;;;18.90;77.40;;;;;;5056069;28;20032;-58
2021/05/11 11:10:30;;;;;;;1.63;1.45;;;19.00;77.40;;;;;;5069424;28;20042;-58
2021/05/11 11:12:57;;;;;;;3.25;1.13;;;19.00;76.80;;;;;;5072638;28;20085;-59
2021/05/11 11:15:23;;;;;;;3.30;1.10;;;19.00;77.00;;;;;;5068584;28;20087;-59
2021/05/11 11:17:53;;;;;;;3.40;1.40;;;19.10;76.30;;;;;;5069842;28;20472;-62
2021/05/11 11:20:22;;;;;;;2.55;1.20;;;19.20;76.50;;;;;;5069836;28;20069;-59
2021/05/11 11:26:01;;;;;;;1.15;1.05;;;19.30;76.50;;;;;;5068926;28;20115;-59
2021/05/11 11:28:28;;;;;;;;;;;19.40;76.20;;;;;;5061465;28;20049;-59
2021/05/11 11:30:54;;;;;;;1.42;1.20;;;19.40;76.80;;;;;;5053375;28;20367;-59
2021/05/11 11:33:19;;;;;;;2.53;1.33;;;19.40;75.90;;;;;;5056286;28;20054;-59
2021/05/11 11:35:45;;;;;;;2.35;1.10;;;19.50;75.80;;;;;;5054056;28;20381;-59
2021/05/11 11:38:20;;;;;;;1.70;1.13;;;19.60;75.50;;;;;;5055027;28;20090;-59
2021/05/11 11:40:46;;;;;;;1.52;1.02;;;19.60;74.70;;;;;;5065170;28;20503;-59
2021/05/11 11:43:11;;;;;;;2.08;1.23;;;19.70;74.90;;;;;;5054914;28;20037;-59
2021/05/11 11:45:39;;;;;;;1.30;1.13;;;19.80;74.40;;;;;;5054143;28;20113;-59
2021/05/11 11:48:05;;;;;;;1.90;1.10;;;19.80;74.10;;;;;;5059407;28;20048;-59
2021/05/11 11:50:37;;;;;;;1.95;1.13;;;19.80;74.10;;;;;;5056004;28;20049;-59
2021/05/11 11:53:14;;;;;;;2.45;1.23;;;19.90;73.90;;;;;;5060416;28;20044;-59
2021/05/11 11:58:26;;;;;;;;;;;19.90;73.80;;;;;;5066462;28;20419;-60
2021/05/11 12:00:51;;;;;;;2.13;1.10;;;20.00;74.40;;;;;;5070374;28;19916;-60
2021/05/11 12:03:21;;;;;;;2.38;1.58;;;20.00;74.20;;;;;;5064570;28;20480;-61
2021/05/11 12:05:58;;;;;;;2.08;1.25;;;20.00;73.50;;;;;;5055872;28;20064;-60
2021/05/11 12:08:29;;;;;;;1.48;0.90;;;20.00;73.00;;;;;;5059570;28;20031;-59
2021/05/11 12:10:58;;;;;;;2.08;1.65;;;20.10;73.60;;;;;;5070949;28;20120;-59
2021/05/11 12:13:32;;;;;;;3.50;1.38;;;20.10;73.80;;;;;;5070679;28;20028;-59
2021/05/11 12:16:16;;;;;;;2.53;1.38;;;20.10;73.10;;;;;;5069069;28;20067;-59
2021/05/11 12:19:10;;;;;;;;;;;20.20;73.10;;;;;;5068692;28;20052;-59
2021/05/11 12:21:57;;;;;;;3.13;1.73;;;20.20;73.80;;;;;;5059802;28;19915;-59
2021/05/11 12:24:25;;;;;;;2.40;1.60;;;20.20;73.10;;;;;;5060099;28;20021;-59
2021/05/11 12:26:51;;;;;;;2.33;1.40;;;20.20;73.10;;;;;;5065180;28;20040;-59
2021/05/11 12:29:18;;;;;;;4.05;1.50;;;20.10;72.90;;;;;;5064785;28;20033;-60
2021/05/11 12:31:49;;;;;;;2.35;1.60;;;20.10;72.70;;;;;;5063329;28;20033;-59
2021/05/11 12:34:23;;;;;;;2.72;1.40;;;20.10;72.60;;;;;;5052393;28;20360;-59
2021/05/11 12:36:52;;;;;;;;;;;20.20;72.30;;;;;;5053451;28;20423;-59
2021/05/11 12:41:52;;;;;;;2.50;1.33;;;20.20;72.50;;;;;;5052528;28;20071;-59
2021/05/11 12:44:30;;;;;;;4.13;1.63;;;20.20;72.40;;;;;;5052877;28;20056;-59
2021/05/11 12:47:02;;;;;;;5.03;1.50;;;20.20;72.60;;;;;;5053155;28;20483;-59
2021/05/11 12:49:29;;;;;;;3.83;1.60;;;20.10;72.20;;;;;;5052031;28;20037;-59
2021/05/11 12:51:56;;;;;;;3.08;1.40;;;20.10;72.00;;;;;;5053330;28;20411;-59
2021/05/11 12:54:40;;;;;;;4.10;1.83;;;20.20;72.00;;;;;;5051326;28;20450;-59
2021/05/11 12:57:26;;;;;;;1.77;1.48;;;20.20;72.00;;;;;;5053809;28;20085;-59
2021/05/11 13:00:10;;;;;;;4.28;1.67;;;20.10;72.20;;;;;;5075049;28;20387;-58
2021/05/11 13:22:16;;;;;;;3.75;1.80;;;20.20;73.60;;;;;;5067862;28;20037;-58
2021/05/11 13:35:14;;;;;;;5.55;2.90;;;20.20;72.40;;;;;;5067784;28;20036;-59
2021/05/11 13:37:39;;;;;;;3.17;2.78;;;20.20;72.30;;;;;;5067906;28;20029;-59
2021/05/11 13:40:07;;;;;;;4.90;2.50;;;20.20;71.80;;;;;;5069551;28;20395;-59
2021/05/11 13:42:33;;;;;;;3.15;2.53;;;20.20;72.90;;;;;;5067980;28;20056;-59
2021/05/11 13:44:58;;;;;;;3.35;2.10;;;20.20;73.40;;;;;;5066577;28;20029;-59
2021/05/11 13:47:24;;;;;;;3.63;2.45;;;20.20;73.20;;;;;;5068710;28;20387;-59
2021/05/11 13:49:57;;;;;;;4.03;2.28;;;20.20;72.80;;;;;;5069469;28;20064;-59
2021/05/11 13:52:23;;;;;;;4.18;2.15;;;20.20;72.90;;;;;;5068986;28;20025;-58
2021/05/11 13:54:54;;;;;;;2.15;1.20;;;20.20;73.30;;;;;;5067411;28;20063;-59
2021/05/11 14:02:48;;;;;;;1.40;1.05;;;20.10;73.00;;;;;;5066870;28;20479;-59
2021/05/11 14:05:14;;;;;;;3.20;1.23;;;20.10;73.10;;;;;;5065659;28;20029;-58
2021/05/11 14:07:39;;;;;;;2.30;1.00;;;20.10;72.30;;;;;;5060282;28;20090;-59
2021/05/11 14:10:06;;;;;;;4.35;1.50;;;20.10;72.70;;;;;;5063868;28;20017;-59
2021/05/11 14:12:32;;;;;;;3.03;1.33;;;20.10;72.50;;;;;;5065494;28;20086;-59
2021/05/11 14:14:59;;;;;;;2.58;1.20;;;20.10;72.60;;;;;;5061902;28;20036;-61
2021/05/11 14:17:25;;;;;;;1.65;1.33;;;20.10;73.30;;;;;;5073393;28;20047;-61
2021/05/11 14:19:51;;;;;;;2.40;1.35;;;20.10;74.00;;;;;;5069557;28;20554;-59
2021/05/11 14:22:20;;;;;;;3.03;1.38;;;20.10;74.20;;;;;;5056437;28;20025;-59
2021/05/11 14:24:49;;;;;;;1.48;1.30;;;20.00;73.90;;;;;;5057355;28;20032;-59
2021/05/11 14:27:15;;;;;;;2.95;1.52;;;20.10;73.90;;;;;;5060976;28;20028;-60
2021/05/11 14:29:41;;;;;;;1.52;0.98;;;20.10;74.20;;;;;;5061944;28;20102;-59
2021/05/11 14:32:07;;;;;;;0.95;0.65;;;20.10;75.10;;;;;;5056532;28;20029;-59
2021/05/11 14:34:33;;;;;;;0.75;0.50;;;20.00;74.00;;;;;;5055539;28;20041;-60
2021/05/11 14:36:58;;;;;;;0.65;0.63;;;20.00;74.40;;;;;;5053442;28;20028;-59
2021/05/11 14:39:24;;;;;;;1.17;0.55;;;19.90;73.60;;;;;;5053198;28;20025;-58
2021/05/11 14:41:53;;;;;;;7.50;1.02;;;20.00;74.20;;;;;;5052123;28;20029;-59
2021/05/11 14:44:25;;;;;;;1.65;0.85;;;20.00;73.60;;;;;;5055479;28;20028;-59
2021/05/11 14:46:51;;;;;;;6.25;1.08;;;19.90;73.90;;;;;;5058331;28;20025;-59
2021/05/11 14:49:17;;;;;;;3.38;0.70;;;19.90;73.80;;;;;;5063597;28;20025;-59
2021/05/11 14:51:43;;;;;;;1.65;0.75;;;19.80;73.70;;;;;;5066908;28;20059;-59
2021/05/11 14:54:10;;;;;;;2.42;0.52;;;19.90;73.50;;;;;;5068873;28;20083;-59
2021/05/11 14:56:41;;;;;;;2.65;0.98;;;19.80;73.10;;;;;;5071676;28;20046;-58
2021/05/11 14:59:08;;;;;;;1.27;1.05;;;19.80;73.10;;;;;;5066969;28;20032;-59
2021/05/11 15:01:38;;;;;;;1.13;0.77;;;19.80;72.90;;;;;;5064087;28;20094;-59
2021/05/11 15:04:04;;;;;;;0.80;0.80;;;19.80;73.40;;;;;;5063285;28;20058;-58
2021/05/11 15:06:30;;;;;;;0.60;0.60;;;19.80;73.20;;;;;;5063389;28;20054;-59
2021/05/11 15:08:56;;;;;;;1.70;1.00;;;19.70;73.20;;;;;;5061303;28;20033;-58
2021/05/11 15:11:22;;;;;;;1.75;0.98;;;19.70;73.00;;;;;;5059569;28;20033;-59
2021/05/11 15:13:50;;;;;;;2.78;1.10;;;19.70;72.90;;;;;;5060000;28;20036;-59
2021/05/11 15:16:22;;;;;;;0.75;0.70;;;19.70;73.10;;;;;;5061600;28;20025;-61
2021/05/11 15:18:51;;;;;;;1.05;0.68;;;19.70;72.70;;;;;;5066820;28;20028;-60
2021/05/11 15:21:18;;;;;;;4.45;0.82;;;19.70;73.20;;;;;;5063779;28;20029;-59
2021/05/11 15:23:47;;;;;;;2.90;0.80;;;19.60;73.50;;;;;;5066777;28;20028;-59
2021/05/11 15:26:13;;;;;;;0.70;0.70;;;19.70;73.80;;;;;;5062557;28;20087;-59
2021/05/11 15:28:39;;;;;;;1.80;0.70;;;19.60;73.70;;;;;;5072162;28;20502;-59
2021/05/11 15:31:05;;;;;;;3.88;0.70;;;19.60;73.30;;;;;;5064638;28;20029;-60
2021/05/11 15:33:31;;;;;;;1.52;0.85;;;19.60;73.00;;;;;;5071268;28;20567;-59
2021/05/11 15:35:58;;;;;;;2.25;0.90;;;19.60;72.70;;;;;;5062054;28;20036;-59
2021/05/11 15:38:28;;;;;;;5.13;0.70;;;19.50;72.70;;;;;;5055257;28;20024;-58
2021/05/11 15:40:55;;;;;;;1.85;0.80;;;19.60;72.40;;;;;;5066948;28;20064;-59
2021/05/11 15:43:21;;;;;;;1.65;0.90;;;19.50;72.50;;;;;;5063168;28;20777;-58
2021/05/11 15:45:47;;;;;;;2.58;1.08;;;19.50;71.40;;;;;;5054095;28;20116;-59
2021/05/11 15:48:13;;;;;;;0.50;0.50;;;19.40;71.30;;;;;;5052171;28;20039;-59
2021/05/11 15:50:45;;;;;;;2.40;0.63;;;19.40;71.60;;;;;;5051995;28;20108;-59
2021/05/11 15:53:16;;;;;;;0.70;0.70;;;19.40;71.40;;;;;;5053476;28;20131;-59
2021/05/11 15:55:43;;;;;;;5.38;1.30;;;19.40;71.20;;;;;;5056737;28;20052;-59
2021/05/11 15:58:11;;;;;;;3.38;1.13;;;19.40;71.30;;;;;;5062105;28;20078;-60
2021/05/11 16:00:39;;;;;;;4.22;0.90;;;19.30;71.20;;;;;;5071674;28;20056;-61
2021/05/11 16:03:05;;;;;;;2.45;0.88;;;19.30;71.20;;;;;;5064847;28;20056;-60
2021/05/11 16:05:35;;;;;;;3.10;1.25;;;19.30;71.30;;;;;;5066210;28;20036;-60
2021/05/11 16:08:03;;;;;;;2.53;1.13;;;19.30;71.60;;;;;;5066634;28;20048;-60
2021/05/11 16:10:29;;;;;;;2.83;1.10;;;19.20;71.70;;;;;;5071114;28;20468;-59
2021/05/11 16:12:55;;;;;;;5.20;1.08;;;19.20;72.00;;;;;;5070514;28;20029;-59
2021/05/11 16:15:22;;;;;;;5.88;1.08;;;19.20;72.20;;;;;;5066927;28;20045;-59
2021/05/11 16:17:48;;;;;;;3.38;1.20;;;19.10;72.30;;;;;;5068372;28;20055;-59
2021/05/11 16:20:14;;;;;;;2.58;1.27;;;19.10;72.30;;;;;;5051931;28;20041;-59
2021/05/11 16:22:41;;;;;;;2.90;1.08;;;19.10;72.60;;;;;;5062187;28;20024;-58
2021/05/11 16:25:08;;;;;;;5.82;1.33;;;19.00;72.50;;;;;;5070006;28;20028;-59
2021/05/11 16:27:34;;;;;;;6.93;1.63;;;19.00;72.90;;;;;;5069156;28;20032;-59
2021/05/11 16:30:00;;;;;;;4.28;1.17;;;19.00;73.10;;;;;;5069642;28;20475;-59
2021/05/11 16:32:26;;;;;;;5.30;1.48;;;18.90;73.00;;;;;;5065447;28;20055;-59
2021/05/11 16:34:52;;;;;;;3.28;1.52;;;18.90;73.10;;;;;;5059918;28;20051;-58
2021/05/11 16:37:17;;;;;;;5.30;1.58;;;18.90;73.10;;;;;;5054362;28;20032;-59
2021/05/11 16:39:43;;;;;;;2.97;1.23;;;18.80;73.50;;;;;;5073137;28;20399;-59
2021/05/11 16:42:09;;;;;;;3.67;1.40;;;18.80;73.70;;;;;;5069483;28;20383;-59
2021/05/11 16:44:37;;;;;;;3.38;1.20;;;18.80;73.70;;;;;;5066031;28;20041;-59
2021/05/11 16:47:04;;;;;;;4.05;1.38;;;18.80;73.80;;;;;;5067733;28;20028;-59
2021/05/11 16:49:30;;;;;;;5.03;1.80;;;18.70;73.60;;;;;;5054580;28;20029;-59
2021/05/11 16:51:56;;;;;;;3.88;1.48;;;18.70;73.70;;;;;;5056524;28;20032;-59
2021/05/11 16:54:22;;;;;;;2.90;1.50;;;18.70;73.70;;;;;;5056415;28;20094;-59
2021/05/11 16:56:48;;;;;;;4.80;1.77;;;18.70;73.90;;;;;;5060843;28;20488;-59
2021/05/11 16:59:14;;;;;;;5.82;1.90;;;18.60;73.90;;;;;;5072423;28;20049;-59
2021/05/11 17:01:40;;;;;;;5.25;1.80;;;18.60;74.00;;;;;;5063853;28;20025;-59
2021/05/11 17:04:06;;;;;;;7.30;1.67;;;18.60;74.20;;;;;;5059858;28;20110;-59
2021/05/11 17:06:33;;;;;;;6.43;2.15;;;18.60;74.20;;;;;;5059853;28;20044;-58